TimeMST,TemperatureF,Dew PointF,Humidity,Sea Level PressureIn,VisibilityMPH,Wind Direction,Wind SpeedMPH,Gust SpeedMPH,PrecipitationIn,Events,Conditions,WindDirDegrees,DateUTC
12:13 AM,15.8,15.8,100,30.45,10.0,NW,3.5,-,N/A,,Overcast,310,2013-01-15 07:13:00
12:28 AM,15.8,15.8,100,30.45,10.0,WNW,2.3,-,N/A,,Overcast,300,2013-01-15 07:28:00
12:43 AM,15.8,15.8,100,30.46,10.0,WNW,2.3,-,N/A,,Overcast,300,2013-01-15 07:43:00
12:58 AM,15.6,15.6,100,30.61,10.0,West,3.5,-,N/A,,Overcast,260,2013-01-15 07:58:00
1:58 AM,13.8,13.8,100,30.63,10.0,WNW,8.1,-,N/A,,Overcast,290,2013-01-15 08:58:00
2:28 AM,15.8,15.8,100,30.49,10.0,WNW,6.9,-,N/A,,Overcast,290,2013-01-15 09:28:00
2:58 AM,14.2,14.2,100,30.66,10.0,NW,3.5,-,N/A,,Overcast,310,2013-01-15 09:58:00
3:48 AM,14.0,14.0,100,30.51,9.0,SSW,2.3,-,N/A,,Overcast,210,2013-01-15 10:48:00
3:58 AM,14.9,14.9,100,30.66,9.0,West,2.3,-,N/A,,Overcast,270,2013-01-15 10:58:00
4:58 AM,13.8,13.8,100,30.68,10.0,ESE,5.8,-,N/A,,Overcast,110,2013-01-15 11:58:00
5:13 AM,14.0,14.0,100,30.53,10.0,ESE,4.6,-,N/A,,Overcast,110,2013-01-15 12:13:00
5:48 AM,14.0,14.0,100,30.53,10.0,ESE,4.6,-,N/A,,Overcast,110,2013-01-15 12:48:00
5:58 AM,14.4,14.4,100,30.69,10.0,East,5.8,-,N/A,,Overcast,100,2013-01-15 12:58:00
6:58 AM,14.5,14.5,100,30.70,10.0,ESE,4.6,-,N/A,,Overcast,110,2013-01-15 13:58:00
7:48 AM,14.0,14.0,100,30.56,10.0,East,4.6,-,N/A,,Overcast,100,2013-01-15 14:48:00
7:58 AM,14.9,14.9,100,30.71,10.0,East,5.8,-,N/A,,Overcast,90,2013-01-15 14:58:00
8:58 AM,15.1,15.1,100,30.75,10.0,East,8.1,-,N/A,,Overcast,100,2013-01-15 15:58:00
9:38 AM,15.8,15.8,100,30.61,10.0,ESE,8.1,-,N/A,,Overcast,110,2013-01-15 16:38:00
9:58 AM,15.4,15.4,100,30.77,10.0,ESE,8.1,-,N/A,,Overcast,110,2013-01-15 16:58:00
10:58 AM,16.0,15.8,99,30.77,10.0,ESE,8.1,-,N/A,,Mostly Cloudy,120,2013-01-15 17:58:00
11:03 AM,15.8,15.8,100,30.63,10.0,East,6.9,-,N/A,,Scattered Clouds,100,2013-01-15 18:03:00
11:58 AM,18.0,16.2,93,30.77,10.0,SE,3.5,-,N/A,,Clear,130,2013-01-15 18:58:00
12:02 PM,17.6,15.8,93,30.63,10.0,SE,3.5,-,N/A,,Mostly Cloudy,130,2013-01-15 19:02:00
12:58 PM,18.0,17.6,98,30.75,10.0,SE,2.3,-,N/A,,Clear,140,2013-01-15 19:58:00
1:58 PM,18.3,18.1,99,30.76,10.0,Calm,Calm,-,N/A,,Mostly Cloudy,0,2013-01-15 20:58:00
2:58 PM,19.6,18.1,94,30.75,10.0,Calm,Calm,-,N/A,,Mostly Cloudy,0,2013-01-15 21:58:00
3:58 PM,18.5,18.3,99,30.77,10.0,NW,2.3,-,N/A,,Mostly Cloudy,320,2013-01-15 22:58:00
4:58 PM,17.4,17.4,100,30.79,10.0,NE,2.3,-,N/A,,Mostly Cloudy,50,2013-01-15 23:58:00
5:58 PM,12.7,12.7,100,30.82,10.0,East,4.6,-,N/A,,Clear,80,2013-01-16 00:58:00
6:58 PM,9.1,9.1,100,30.84,10.0,East,4.6,-,N/A,,Clear,100,2013-01-16 01:58:00
7:58 PM,7.5,7.5,100,30.85,10.0,East,2.3,-,N/A,,Clear,90,2013-01-16 02:58:00
8:58 PM,6.6,6.6,100,30.84,10.0,ENE,3.5,-,N/A,,Clear,60,2013-01-16 03:58:00
9:58 PM,6.4,6.4,100,30.84,10.0,NNE,2.3,-,N/A,,Clear,20,2013-01-16 04:58:00
10:58 PM,5.4,5.4,100,30.84,10.0,East,3.5,-,N/A,,Clear,80,2013-01-16 05:58:00
11:58 PM,4.1,4.1,100,30.84,10.0,East,3.5,-,N/A,,Clear,90,2013-01-16 06:58:00